sensor_id;sensor_type;location;lat;lon;timestamp;P1;durP1;ratioP1;P2;durP2;ratioP2
14923;SDS011;7554;43.600;1.480;2023-03-15T00:02:07;27.00;;;3.33;;
14923;SDS011;7554;43.600;1.480;2023-03-15T00:04:34;30.07;;;3.43;;
14923;SDS011;7554;43.600;1.480;2023-03-15T00:07:02;22.37;;;2.40;;
14923;SDS011;7554;43.600;1.480;2023-03-15T00:09:29;21.50;;;2.87;;
14923;SDS011;7554;43.600;1.480;2023-03-15T00:11:56;19.63;;;2.97;;
14923;SDS011;7554;43.600;1.480;2023-03-15T00:14:24;23.27;;;3.07;;
14923;SDS011;7554;43.600;1.480;2023-03-15T00:16:52;23.07;;;4.73;;
14923;SDS011;7554;43.600;1.480;2023-03-15T00:19:20;24.40;;;3.40;;
14923;SDS011;7554;43.600;1.480;2023-03-15T00:21:47;25.17;;;3.57;;
14923;SDS011;7554;43.600;1.480;2023-03-15T00:24:14;27.67;;;3.03;;
14923;SDS011;7554;43.600;1.480;2023-03-15T00:26:42;23.70;;;2.90;;
14923;SDS011;7554;43.600;1.480;2023-03-15T00:29:09;24.43;;;3.30;;
14923;SDS011;7554;43.600;1.480;2023-03-15T00:31:36;26.23;;;3.53;;
14923;SDS011;7554;43.600;1.480;2023-03-15T00:34:05;24.67;;;3.30;;
14923;SDS011;7554;43.600;1.480;2023-03-15T00:36:32;33.43;;;3.67;;
14923;SDS011;7554;43.600;1.480;2023-03-15T00:38:59;29.17;;;3.33;;
14923;SDS011;7554;43.600;1.480;2023-03-15T00:41:28;20.83;;;2.70;;
14923;SDS011;7554;43.600;1.480;2023-03-15T00:43:56;21.63;;;3.07;;
14923;SDS011;7554;43.600;1.480;2023-03-15T00:46:23;22.20;;;2.73;;
14923;SDS011;7554;43.600;1.480;2023-03-15T00:48:51;22.37;;;3.63;;
14923;SDS011;7554;43.600;1.480;2023-03-15T00:51:20;28.67;;;3.17;;
14923;SDS011;7554;43.600;1.480;2023-03-15T00:53:49;20.93;;;2.90;;
14923;SDS011;7554;43.600;1.480;2023-03-15T00:56:18;23.03;;;3.70;;
14923;SDS011;7554;43.600;1.480;2023-03-15T00:58:46;25.70;;;2.83;;
14923;SDS011;7554;43.600;1.480;2023-03-15T01:01:15;21.60;;;3.10;;
14923;SDS011;7554;43.600;1.480;2023-03-15T01:03:45;18.40;;;3.47;;
14923;SDS011;7554;43.600;1.480;2023-03-15T01:06:13;23.20;;;3.10;;
14923;SDS011;7554;43.600;1.480;2023-03-15T01:08:43;24.27;;;3.17;;
14923;SDS011;7554;43.600;1.480;2023-03-15T01:11:11;23.30;;;3.17;;
14923;SDS011;7554;43.600;1.480;2023-03-15T01:13:40;26.40;;;3.33;;
14923;SDS011;7554;43.600;1.480;2023-03-15T01:16:09;19.60;;;2.37;;
14923;SDS011;7554;43.600;1.480;2023-03-15T01:18:37;25.77;;;2.80;;
14923;SDS011;7554;43.600;1.480;2023-03-15T01:21:05;17.00;;;2.47;;
14923;SDS011;7554;43.600;1.480;2023-03-15T01:23:33;21.90;;;2.67;;
14923;SDS011;7554;43.600;1.480;2023-03-15T01:26:02;21.83;;;2.70;;
14923;SDS011;7554;43.600;1.480;2023-03-15T01:28:31;19.50;;;2.57;;
14923;SDS011;7554;43.600;1.480;2023-03-15T01:30:58;28.27;;;3.43;;
14923;SDS011;7554;43.600;1.480;2023-03-15T01:33:26;18.03;;;2.57;;
14923;SDS011;7554;43.600;1.480;2023-03-15T01:35:59;22.87;;;3.10;;
14923;SDS011;7554;43.600;1.480;2023-03-15T01:38:28;20.30;;;3.53;;
14923;SDS011;7554;43.600;1.480;2023-03-15T01:40:56;16.00;;;3.03;;
14923;SDS011;7554;43.600;1.480;2023-03-15T01:43:25;18.83;;;3.07;;
14923;SDS011;7554;43.600;1.480;2023-03-15T01:46:01;23.40;;;3.17;;
14923;SDS011;7554;43.600;1.480;2023-03-15T01:48:40;25.80;;;3.07;;
14923;SDS011;7554;43.600;1.480;2023-03-15T01:51:11;25.47;;;3.03;;
14923;SDS011;7554;43.600;1.480;2023-03-15T01:53:42;29.67;;;3.43;;
14923;SDS011;7554;43.600;1.480;2023-03-15T01:56:13;22.03;;;3.57;;
14923;SDS011;7554;43.600;1.480;2023-03-15T01:58:43;22.20;;;3.20;;
14923;SDS011;7554;43.600;1.480;2023-03-15T02:01:12;21.80;;;3.20;;
14923;SDS011;7554;43.600;1.480;2023-03-15T02:03:41;16.03;;;2.47;;
14923;SDS011;7554;43.600;1.480;2023-03-15T02:06:14;18.57;;;2.83;;
14923;SDS011;7554;43.600;1.480;2023-03-15T02:08:44;21.77;;;2.70;;
14923;SDS011;7554;43.600;1.480;2023-03-15T02:11:15;24.50;;;2.87;;
14923;SDS011;7554;43.600;1.480;2023-03-15T02:13:46;20.53;;;2.27;;
14923;SDS011;7554;43.600;1.480;2023-03-15T02:16:15;13.70;;;3.07;;
14923;SDS011;7554;43.600;1.480;2023-03-15T02:18:43;22.33;;;2.87;;
14923;SDS011;7554;43.600;1.480;2023-03-15T02:21:13;20.60;;;3.27;;
14923;SDS011;7554;43.600;1.480;2023-03-15T02:23:49;14.07;;;2.70;;
14923;SDS011;7554;43.600;1.480;2023-03-15T02:26:27;17.57;;;2.77;;
14923;SDS011;7554;43.600;1.480;2023-03-15T02:29:01;14.60;;;1.90;;
14923;SDS011;7554;43.600;1.480;2023-03-15T02:31:29;15.67;;;2.30;;
14923;SDS011;7554;43.600;1.480;2023-03-15T02:34:02;13.83;;;2.07;;
14923;SDS011;7554;43.600;1.480;2023-03-15T02:36:31;25.17;;;2.83;;
14923;SDS011;7554;43.600;1.480;2023-03-15T02:38:59;14.30;;;2.37;;
14923;SDS011;7554;43.600;1.480;2023-03-15T02:41:28;12.07;;;1.87;;
14923;SDS011;7554;43.600;1.480;2023-03-15T02:44:02;18.17;;;2.23;;
14923;SDS011;7554;43.600;1.480;2023-03-15T02:46:34;17.73;;;2.47;;
14923;SDS011;7554;43.600;1.480;2023-03-15T02:49:02;17.97;;;2.70;;
14923;SDS011;7554;43.600;1.480;2023-03-15T02:51:31;13.77;;;2.60;;
14923;SDS011;7554;43.600;1.480;2023-03-15T02:53:59;15.33;;;1.80;;
14923;SDS011;7554;43.600;1.480;2023-03-15T02:56:26;18.43;;;2.83;;
14923;SDS011;7554;43.600;1.480;2023-03-15T02:58:54;15.37;;;2.40;;
14923;SDS011;7554;43.600;1.480;2023-03-15T03:01:23;19.13;;;2.43;;
14923;SDS011;7554;43.600;1.480;2023-03-15T03:03:50;10.13;;;1.63;;
14923;SDS011;7554;43.600;1.480;2023-03-15T03:06:18;15.73;;;2.13;;
14923;SDS011;7554;43.600;1.480;2023-03-15T03:08:45;13.17;;;2.40;;
14923;SDS011;7554;43.600;1.480;2023-03-15T03:11:13;19.27;;;2.63;;
14923;SDS011;7554;43.600;1.480;2023-03-15T03:13:42;13.30;;;2.37;;
14923;SDS011;7554;43.600;1.480;2023-03-15T03:16:09;12.60;;;2.00;;
14923;SDS011;7554;43.600;1.480;2023-03-15T03:18:39;14.30;;;2.20;;
14923;SDS011;7554;43.600;1.480;2023-03-15T03:21:06;16.50;;;2.30;;
14923;SDS011;7554;43.600;1.480;2023-03-15T03:23:34;11.67;;;1.83;;
14923;SDS011;7554;43.600;1.480;2023-03-15T03:26:02;14.73;;;2.07;;
14923;SDS011;7554;43.600;1.480;2023-03-15T03:28:30;13.97;;;2.20;;
14923;SDS011;7554;43.600;1.480;2023-03-15T03:30:58;10.97;;;1.63;;
14923;SDS011;7554;43.600;1.480;2023-03-15T03:33:25;9.97;;;2.07;;
14923;SDS011;7554;43.600;1.480;2023-03-15T03:35:59;18.87;;;2.27;;
14923;SDS011;7554;43.600;1.480;2023-03-15T03:38:28;14.23;;;2.23;;
14923;SDS011;7554;43.600;1.480;2023-03-15T03:40:55;10.03;;;1.77;;
14923;SDS011;7554;43.600;1.480;2023-03-15T03:43:23;12.93;;;2.00;;
14923;SDS011;7554;43.600;1.480;2023-03-15T03:45:50;15.77;;;2.27;;
14923;SDS011;7554;43.600;1.480;2023-03-15T03:48:17;10.13;;;1.70;;
14923;SDS011;7554;43.600;1.480;2023-03-15T03:50:45;14.50;;;2.50;;
14923;SDS011;7554;43.600;1.480;2023-03-15T03:53:13;9.83;;;2.00;;
14923;SDS011;7554;43.600;1.480;2023-03-15T03:55:41;13.63;;;2.10;;
14923;SDS011;7554;43.600;1.480;2023-03-15T03:58:08;13.00;;;2.33;;
14923;SDS011;7554;43.600;1.480;2023-03-15T04:00:35;12.67;;;1.90;;
14923;SDS011;7554;43.600;1.480;2023-03-15T04:03:03;16.50;;;2.40;;
14923;SDS011;7554;43.600;1.480;2023-03-15T04:05:30;16.87;;;2.40;;
14923;SDS011;7554;43.600;1.480;2023-03-15T04:07:57;12.70;;;2.03;;
14923;SDS011;7554;43.600;1.480;2023-03-15T04:10:26;17.03;;;1.60;;
14923;SDS011;7554;43.600;1.480;2023-03-15T04:12:54;11.87;;;2.00;;
14923;SDS011;7554;43.600;1.480;2023-03-15T04:15:22;12.70;;;1.93;;
14923;SDS011;7554;43.600;1.480;2023-03-15T04:17:50;14.38;;;2.72;;
14923;SDS011;7554;43.600;1.480;2023-03-15T04:20:20;12.77;;;2.43;;
14923;SDS011;7554;43.600;1.480;2023-03-15T04:22:47;14.40;;;2.83;;
14923;SDS011;7554;43.600;1.480;2023-03-15T04:25:15;10.13;;;1.50;;
14923;SDS011;7554;43.600;1.480;2023-03-15T04:27:44;8.73;;;1.67;;
14923;SDS011;7554;43.600;1.480;2023-03-15T04:30:22;11.63;;;2.07;;
14923;SDS011;7554;43.600;1.480;2023-03-15T04:32:51;11.03;;;1.70;;
14923;SDS011;7554;43.600;1.480;2023-03-15T04:35:23;13.27;;;1.97;;
14923;SDS011;7554;43.600;1.480;2023-03-15T04:37:51;11.77;;;1.83;;
14923;SDS011;7554;43.600;1.480;2023-03-15T04:40:18;9.70;;;1.80;;
14923;SDS011;7554;43.600;1.480;2023-03-15T04:42:49;8.93;;;1.60;;
14923;SDS011;7554;43.600;1.480;2023-03-15T04:45:19;15.87;;;1.90;;
14923;SDS011;7554;43.600;1.480;2023-03-15T04:47:48;11.20;;;1.57;;
14923;SDS011;7554;43.600;1.480;2023-03-15T04:50:15;14.37;;;2.30;;
14923;SDS011;7554;43.600;1.480;2023-03-15T04:52:43;13.37;;;2.37;;
14923;SDS011;7554;43.600;1.480;2023-03-15T04:55:11;11.57;;;1.63;;
14923;SDS011;7554;43.600;1.480;2023-03-15T04:57:38;12.03;;;2.10;;
14923;SDS011;7554;43.600;1.480;2023-03-15T05:00:09;19.57;;;2.30;;
14923;SDS011;7554;43.600;1.480;2023-03-15T05:02:38;14.00;;;1.57;;
14923;SDS011;7554;43.600;1.480;2023-03-15T05:05:06;11.23;;;1.70;;
14923;SDS011;7554;43.600;1.480;2023-03-15T05:07:34;6.53;;;1.70;;
14923;SDS011;7554;43.600;1.480;2023-03-15T05:10:02;9.37;;;1.90;;
14923;SDS011;7554;43.600;1.480;2023-03-15T05:12:30;14.70;;;2.30;;
14923;SDS011;7554;43.600;1.480;2023-03-15T05:14:58;10.30;;;1.80;;
14923;SDS011;7554;43.600;1.480;2023-03-15T05:17:27;8.83;;;1.60;;
14923;SDS011;7554;43.600;1.480;2023-03-15T05:19:54;12.83;;;2.07;;
14923;SDS011;7554;43.600;1.480;2023-03-15T05:22:21;10.47;;;1.87;;
14923;SDS011;7554;43.600;1.480;2023-03-15T05:24:50;13.83;;;2.17;;
14923;SDS011;7554;43.600;1.480;2023-03-15T05:27:18;14.00;;;1.93;;
14923;SDS011;7554;43.600;1.480;2023-03-15T05:29:45;13.43;;;2.23;;
14923;SDS011;7554;43.600;1.480;2023-03-15T05:32:13;13.67;;;2.20;;
14923;SDS011;7554;43.600;1.480;2023-03-15T05:34:41;10.70;;;2.00;;
14923;SDS011;7554;43.600;1.480;2023-03-15T05:37:09;12.40;;;2.50;;
14923;SDS011;7554;43.600;1.480;2023-03-15T05:39:37;15.67;;;2.07;;
14923;SDS011;7554;43.600;1.480;2023-03-15T05:42:06;7.80;;;1.47;;
14923;SDS011;7554;43.600;1.480;2023-03-15T05:44:33;13.87;;;2.03;;
14923;SDS011;7554;43.600;1.480;2023-03-15T05:47:01;9.73;;;1.80;;
14923;SDS011;7554;43.600;1.480;2023-03-15T05:49:28;12.00;;;1.97;;
14923;SDS011;7554;43.600;1.480;2023-03-15T05:51:57;9.90;;;2.07;;
14923;SDS011;7554;43.600;1.480;2023-03-15T05:54:24;13.23;;;1.90;;
14923;SDS011;7554;43.600;1.480;2023-03-15T05:56:52;18.77;;;2.73;;
14923;SDS011;7554;43.600;1.480;2023-03-15T05:59:19;7.97;;;1.40;;
14923;SDS011;7554;43.600;1.480;2023-03-15T06:01:46;11.63;;;1.87;;
14923;SDS011;7554;43.600;1.480;2023-03-15T06:04:14;10.20;;;1.53;;
14923;SDS011;7554;43.600;1.480;2023-03-15T06:06:41;10.60;;;1.90;;
14923;SDS011;7554;43.600;1.480;2023-03-15T06:09:10;11.10;;;1.83;;
14923;SDS011;7554;43.600;1.480;2023-03-15T06:11:37;12.10;;;2.07;;
14923;SDS011;7554;43.600;1.480;2023-03-15T06:14:05;8.03;;;1.87;;
14923;SDS011;7554;43.600;1.480;2023-03-15T06:16:32;7.23;;;1.97;;
14923;SDS011;7554;43.600;1.480;2023-03-15T06:18:59;11.17;;;1.80;;
14923;SDS011;7554;43.600;1.480;2023-03-15T06:21:27;8.43;;;1.60;;
14923;SDS011;7554;43.600;1.480;2023-03-15T06:23:55;11.83;;;1.63;;
14923;SDS011;7554;43.600;1.480;2023-03-15T06:26:23;8.10;;;1.93;;
14923;SDS011;7554;43.600;1.480;2023-03-15T06:28:51;5.67;;;1.37;;
14923;SDS011;7554;43.600;1.480;2023-03-15T06:31:18;7.53;;;1.30;;
14923;SDS011;7554;43.600;1.480;2023-03-15T06:33:45;7.40;;;1.27;;
14923;SDS011;7554;43.600;1.480;2023-03-15T06:36:12;9.97;;;2.23;;
14923;SDS011;7554;43.600;1.480;2023-03-15T06:38:40;7.87;;;1.50;;
14923;SDS011;7554;43.600;1.480;2023-03-15T06:41:07;8.77;;;2.17;;
14923;SDS011;7554;43.600;1.480;2023-03-15T06:43:38;10.60;;;1.80;;
14923;SDS011;7554;43.600;1.480;2023-03-15T06:46:05;13.67;;;1.93;;
14923;SDS011;7554;43.600;1.480;2023-03-15T06:48:32;8.20;;;1.60;;
14923;SDS011;7554;43.600;1.480;2023-03-15T06:51:00;8.30;;;1.60;;
14923;SDS011;7554;43.600;1.480;2023-03-15T06:53:28;8.17;;;2.10;;
14923;SDS011;7554;43.600;1.480;2023-03-15T06:55:55;11.13;;;1.77;;
14923;SDS011;7554;43.600;1.480;2023-03-15T06:58:22;6.17;;;1.67;;
14923;SDS011;7554;43.600;1.480;2023-03-15T07:00:51;7.27;;;1.20;;
14923;SDS011;7554;43.600;1.480;2023-03-15T07:03:19;11.73;;;1.87;;
14923;SDS011;7554;43.600;1.480;2023-03-15T07:05:48;8.73;;;1.70;;
14923;SDS011;7554;43.600;1.480;2023-03-15T07:08:18;8.70;;;1.70;;
14923;SDS011;7554;43.600;1.480;2023-03-15T07:10:45;6.93;;;1.53;;
14923;SDS011;7554;43.600;1.480;2023-03-15T07:13:13;9.17;;;1.33;;
14923;SDS011;7554;43.600;1.480;2023-03-15T07:15:41;8.67;;;1.70;;
14923;SDS011;7554;43.600;1.480;2023-03-15T07:18:10;10.10;;;1.87;;
14923;SDS011;7554;43.600;1.480;2023-03-15T07:20:37;12.17;;;1.83;;
14923;SDS011;7554;43.600;1.480;2023-03-15T07:23:04;13.03;;;1.80;;
14923;SDS011;7554;43.600;1.480;2023-03-15T07:25:32;6.33;;;1.60;;
14923;SDS011;7554;43.600;1.480;2023-03-15T07:27:59;6.83;;;1.60;;
14923;SDS011;7554;43.600;1.480;2023-03-15T07:30:27;9.27;;;1.70;;
14923;SDS011;7554;43.600;1.480;2023-03-15T07:32:54;13.47;;;1.83;;
14923;SDS011;7554;43.600;1.480;2023-03-15T07:35:23;4.60;;;1.60;;
14923;SDS011;7554;43.600;1.480;2023-03-15T07:37:50;16.43;;;3.27;;
14923;SDS011;7554;43.600;1.480;2023-03-15T07:40:18;11.50;;;1.87;;
14923;SDS011;7554;43.600;1.480;2023-03-15T07:42:45;7.80;;;2.00;;
14923;SDS011;7554;43.600;1.480;2023-03-15T07:45:12;7.47;;;1.80;;
14923;SDS011;7554;43.600;1.480;2023-03-15T07:47:40;6.80;;;1.70;;
14923;SDS011;7554;43.600;1.480;2023-03-15T07:50:07;7.07;;;1.33;;
14923;SDS011;7554;43.600;1.480;2023-03-15T07:52:38;9.73;;;1.60;;
14923;SDS011;7554;43.600;1.480;2023-03-15T07:55:05;6.83;;;1.40;;
14923;SDS011;7554;43.600;1.480;2023-03-15T07:57:33;9.50;;;1.87;;
14923;SDS011;7554;43.600;1.480;2023-03-15T08:00:00;7.67;;;2.20;;
14923;SDS011;7554;43.600;1.480;2023-03-15T08:02:28;10.07;;;2.03;;
14923;SDS011;7554;43.600;1.480;2023-03-15T08:04:55;10.40;;;1.77;;
14923;SDS011;7554;43.600;1.480;2023-03-15T08:07:23;9.33;;;1.87;;
14923;SDS011;7554;43.600;1.480;2023-03-15T08:09:51;6.33;;;1.83;;
14923;SDS011;7554;43.600;1.480;2023-03-15T08:12:19;7.37;;;1.70;;
14923;SDS011;7554;43.600;1.480;2023-03-15T08:14:46;6.07;;;1.43;;
14923;SDS011;7554;43.600;1.480;2023-03-15T08:17:14;8.70;;;1.40;;
14923;SDS011;7554;43.600;1.480;2023-03-15T08:19:41;8.33;;;1.70;;
14923;SDS011;7554;43.600;1.480;2023-03-15T08:22:08;7.27;;;1.23;;
14923;SDS011;7554;43.600;1.480;2023-03-15T08:24:36;7.73;;;1.57;;
14923;SDS011;7554;43.600;1.480;2023-03-15T08:27:05;7.53;;;1.20;;
14923;SDS011;7554;43.600;1.480;2023-03-15T08:29:33;8.10;;;1.83;;
14923;SDS011;7554;43.600;1.480;2023-03-15T08:32:01;7.83;;;1.30;;
14923;SDS011;7554;43.600;1.480;2023-03-15T08:34:29;9.70;;;1.50;;
14923;SDS011;7554;43.600;1.480;2023-03-15T08:36:59;7.17;;;1.07;;
14923;SDS011;7554;43.600;1.480;2023-03-15T08:39:26;5.33;;;1.20;;
14923;SDS011;7554;43.600;1.480;2023-03-15T08:41:54;5.87;;;1.30;;
14923;SDS011;7554;43.600;1.480;2023-03-15T08:44:22;6.30;;;1.50;;
14923;SDS011;7554;43.600;1.480;2023-03-15T08:46:50;8.53;;;1.60;;
14923;SDS011;7554;43.600;1.480;2023-03-15T08:49:17;5.63;;;1.37;;
14923;SDS011;7554;43.600;1.480;2023-03-15T08:51:44;7.37;;;1.47;;
14923;SDS011;7554;43.600;1.480;2023-03-15T08:54:11;7.57;;;1.50;;
14923;SDS011;7554;43.600;1.480;2023-03-15T08:56:39;5.70;;;1.27;;
14923;SDS011;7554;43.600;1.480;2023-03-15T08:59:07;39.43;;;20.93;;
14923;SDS011;7554;43.600;1.480;2023-03-15T09:01:36;11.33;;;5.17;;
14923;SDS011;7554;43.600;1.480;2023-03-15T09:04:05;5.33;;;2.03;;
14923;SDS011;7554;43.600;1.480;2023-03-15T09:06:33;4.33;;;1.43;;
14923;SDS011;7554;43.600;1.480;2023-03-15T09:09:00;6.70;;;1.20;;
14923;SDS011;7554;43.600;1.480;2023-03-15T09:11:27;8.70;;;1.23;;
14923;SDS011;7554;43.600;1.480;2023-03-15T09:13:55;5.53;;;1.10;;
14923;SDS011;7554;43.600;1.480;2023-03-15T09:16:22;5.07;;;1.27;;
14923;SDS011;7554;43.600;1.480;2023-03-15T09:18:51;4.97;;;1.00;;
14923;SDS011;7554;43.600;1.480;2023-03-15T09:21:18;4.93;;;1.30;;
14923;SDS011;7554;43.600;1.480;2023-03-15T09:23:45;5.40;;;1.13;;
14923;SDS011;7554;43.600;1.480;2023-03-15T09:26:13;4.00;;;0.97;;
14923;SDS011;7554;43.600;1.480;2023-03-15T09:28:40;4.37;;;0.90;;
14923;SDS011;7554;43.600;1.480;2023-03-15T09:31:07;3.83;;;1.10;;
14923;SDS011;7554;43.600;1.480;2023-03-15T09:33:35;4.63;;;1.30;;
14923;SDS011;7554;43.600;1.480;2023-03-15T09:36:04;2.73;;;0.90;;
14923;SDS011;7554;43.600;1.480;2023-03-15T09:38:32;4.53;;;1.00;;
14923;SDS011;7554;43.600;1.480;2023-03-15T09:41:00;2.60;;;0.90;;
14923;SDS011;7554;43.600;1.480;2023-03-15T09:43:36;5.03;;;1.17;;
14923;SDS011;7554;43.600;1.480;2023-03-15T09:46:19;2.83;;;0.97;;
14923;SDS011;7554;43.600;1.480;2023-03-15T09:48:52;6.17;;;1.50;;
14923;SDS011;7554;43.600;1.480;2023-03-15T09:51:29;3.77;;;0.90;;
14923;SDS011;7554;43.600;1.480;2023-03-15T09:54:02;5.33;;;1.03;;
14923;SDS011;7554;43.600;1.480;2023-03-15T09:56:34;2.87;;;1.17;;
14923;SDS011;7554;43.600;1.480;2023-03-15T09:59:05;3.90;;;0.80;;
14923;SDS011;7554;43.600;1.480;2023-03-15T10:01:34;6.60;;;1.23;;
14923;SDS011;7554;43.600;1.480;2023-03-15T10:04:04;2.80;;;0.70;;
14923;SDS011;7554;43.600;1.480;2023-03-15T10:06:39;2.70;;;0.90;;
14923;SDS011;7554;43.600;1.480;2023-03-15T10:09:11;6.90;;;1.30;;
14923;SDS011;7554;43.600;1.480;2023-03-15T10:11:45;2.63;;;0.77;;
14923;SDS011;7554;43.600;1.480;2023-03-15T10:14:22;4.87;;;0.80;;
14923;SDS011;7554;43.600;1.480;2023-03-15T10:16:58;5.13;;;1.20;;
14923;SDS011;7554;43.600;1.480;2023-03-15T10:19:31;3.33;;;0.77;;
14923;SDS011;7554;43.600;1.480;2023-03-15T10:22:11;4.60;;;0.93;;
14923;SDS011;7554;43.600;1.480;2023-03-15T10:24:47;5.13;;;1.20;;
14923;SDS011;7554;43.600;1.480;2023-03-15T10:27:19;6.63;;;1.37;;
14923;SDS011;7554;43.600;1.480;2023-03-15T10:29:49;3.90;;;0.80;;
14923;SDS011;7554;43.600;1.480;2023-03-15T10:32:21;7.53;;;1.57;;
14923;SDS011;7554;43.600;1.480;2023-03-15T10:34:52;7.47;;;1.13;;
14923;SDS011;7554;43.600;1.480;2023-03-15T10:37:24;4.73;;;1.40;;
14923;SDS011;7554;43.600;1.480;2023-03-15T10:39:52;4.83;;;1.43;;
14923;SDS011;7554;43.600;1.480;2023-03-15T10:42:23;4.13;;;1.10;;
14923;SDS011;7554;43.600;1.480;2023-03-15T10:44:54;6.27;;;0.97;;
14923;SDS011;7554;43.600;1.480;2023-03-15T10:47:22;4.73;;;1.20;;
14923;SDS011;7554;43.600;1.480;2023-03-15T10:49:55;4.70;;;1.13;;
14923;SDS011;7554;43.600;1.480;2023-03-15T10:52:27;2.57;;;1.10;;
14923;SDS011;7554;43.600;1.480;2023-03-15T10:54:59;4.60;;;1.30;;
14923;SDS011;7554;43.600;1.480;2023-03-15T10:57:31;4.63;;;1.23;;
14923;SDS011;7554;43.600;1.480;2023-03-15T11:00:02;4.07;;;1.03;;
14923;SDS011;7554;43.600;1.480;2023-03-15T11:02:34;3.43;;;0.93;;
14923;SDS011;7554;43.600;1.480;2023-03-15T11:05:08;3.03;;;1.00;;
14923;SDS011;7554;43.600;1.480;2023-03-15T11:07:52;7.07;;;1.50;;
14923;SDS011;7554;43.600;1.480;2023-03-15T11:10:20;4.43;;;0.90;;
14923;SDS011;7554;43.600;1.480;2023-03-15T11:12:49;3.73;;;1.03;;
14923;SDS011;7554;43.600;1.480;2023-03-15T11:15:34;5.60;;;1.10;;
14923;SDS011;7554;43.600;1.480;2023-03-15T11:18:01;3.37;;;1.03;;
14923;SDS011;7554;43.600;1.480;2023-03-15T11:20:29;4.03;;;1.00;;
14923;SDS011;7554;43.600;1.480;2023-03-15T11:23:01;1.47;;;0.93;;
14923;SDS011;7554;43.600;1.480;2023-03-15T11:25:39;4.43;;;1.00;;
14923;SDS011;7554;43.600;1.480;2023-03-15T11:28:08;2.93;;;0.80;;
14923;SDS011;7554;43.600;1.480;2023-03-15T11:30:42;4.60;;;1.10;;
14923;SDS011;7554;43.600;1.480;2023-03-15T11:33:14;3.93;;;0.90;;
14923;SDS011;7554;43.600;1.480;2023-03-15T11:35:52;1.97;;;0.90;;
14923;SDS011;7554;43.600;1.480;2023-03-15T11:38:27;6.17;;;0.80;;
14923;SDS011;7554;43.600;1.480;2023-03-15T11:40:59;4.03;;;0.90;;
14923;SDS011;7554;43.600;1.480;2023-03-15T11:43:33;2.97;;;0.70;;
14923;SDS011;7554;43.600;1.480;2023-03-15T11:46:13;2.40;;;0.70;;
14923;SDS011;7554;43.600;1.480;2023-03-15T11:48:47;1.67;;;0.53;;
14923;SDS011;7554;43.600;1.480;2023-03-15T11:51:17;3.70;;;0.70;;
14923;SDS011;7554;43.600;1.480;2023-03-15T11:53:47;3.80;;;0.67;;
14923;SDS011;7554;43.600;1.480;2023-03-15T11:56:21;3.60;;;0.70;;
14923;SDS011;7554;43.600;1.480;2023-03-15T11:58:58;1.83;;;0.60;;
14923;SDS011;7554;43.600;1.480;2023-03-15T12:01:31;2.83;;;0.70;;
14923;SDS011;7554;43.600;1.480;2023-03-15T12:07:09;2.33;;;0.80;;
14923;SDS011;7554;43.600;1.480;2023-03-15T12:09:55;2.60;;;0.73;;
14923;SDS011;7554;43.600;1.480;2023-03-15T12:12:43;3.10;;;0.83;;
14923;SDS011;7554;43.600;1.480;2023-03-15T12:18:13;1.60;;;0.70;;
14923;SDS011;7554;43.600;1.480;2023-03-15T12:20:48;1.93;;;0.60;;
14923;SDS011;7554;43.600;1.480;2023-03-15T12:23:24;3.20;;;0.60;;
14923;SDS011;7554;43.600;1.480;2023-03-15T12:26:03;1.27;;;0.60;;
14923;SDS011;7554;43.600;1.480;2023-03-15T12:28:33;5.73;;;0.80;;
14923;SDS011;7554;43.600;1.480;2023-03-15T12:31:02;2.10;;;0.50;;
14923;SDS011;7554;43.600;1.480;2023-03-15T12:33:33;2.47;;;0.43;;
14923;SDS011;7554;43.600;1.480;2023-03-15T12:36:15;3.13;;;0.70;;
14923;SDS011;7554;43.600;1.480;2023-03-15T12:38:53;2.27;;;0.57;;
14923;SDS011;7554;43.600;1.480;2023-03-15T12:41:39;2.50;;;0.70;;
14923;SDS011;7554;43.600;1.480;2023-03-15T12:44:17;1.77;;;0.67;;
14923;SDS011;7554;43.600;1.480;2023-03-15T12:46:54;3.57;;;0.60;;
14923;SDS011;7554;43.600;1.480;2023-03-15T12:49:30;4.53;;;0.80;;
14923;SDS011;7554;43.600;1.480;2023-03-15T12:52:00;3.40;;;0.60;;
14923;SDS011;7554;43.600;1.480;2023-03-15T12:54:31;3.50;;;0.90;;
14923;SDS011;7554;43.600;1.480;2023-03-15T12:57:04;1.57;;;0.50;;
14923;SDS011;7554;43.600;1.480;2023-03-15T12:59:37;3.47;;;0.70;;
14923;SDS011;7554;43.600;1.480;2023-03-15T13:05:11;2.40;;;0.53;;
14923;SDS011;7554;43.600;1.480;2023-03-15T13:07:56;2.20;;;0.40;;
14923;SDS011;7554;43.600;1.480;2023-03-15T13:10:37;1.00;;;0.50;;
14923;SDS011;7554;43.600;1.480;2023-03-15T13:13:16;2.17;;;0.30;;
14923;SDS011;7554;43.600;1.480;2023-03-15T13:15:57;2.83;;;0.53;;
14923;SDS011;7554;43.600;1.480;2023-03-15T13:18:49;1.17;;;0.50;;
14923;SDS011;7554;43.600;1.480;2023-03-15T13:21:23;2.03;;;0.57;;
14923;SDS011;7554;43.600;1.480;2023-03-15T13:23:55;1.30;;;0.40;;
14923;SDS011;7554;43.600;1.480;2023-03-15T13:26:28;2.03;;;0.40;;
14923;SDS011;7554;43.600;1.480;2023-03-15T13:29:14;2.63;;;0.50;;
14923;SDS011;7554;43.600;1.480;2023-03-15T13:31:45;1.40;;;0.40;;
14923;SDS011;7554;43.600;1.480;2023-03-15T13:34:24;3.00;;;0.83;;
14923;SDS011;7554;43.600;1.480;2023-03-15T13:36:55;1.93;;;0.50;;
14923;SDS011;7554;43.600;1.480;2023-03-15T13:39:24;0.90;;;0.30;;
14923;SDS011;7554;43.600;1.480;2023-03-15T13:41:56;2.57;;;0.40;;
14923;SDS011;7554;43.600;1.480;2023-03-15T13:44:26;2.80;;;0.77;;
14923;SDS011;7554;43.600;1.480;2023-03-15T13:46:54;2.63;;;0.60;;
14923;SDS011;7554;43.600;1.480;2023-03-15T13:49:28;1.90;;;0.43;;
14923;SDS011;7554;43.600;1.480;2023-03-15T13:51:57;1.63;;;0.50;;
14923;SDS011;7554;43.600;1.480;2023-03-15T13:54:25;1.47;;;0.30;;
14923;SDS011;7554;43.600;1.480;2023-03-15T13:56:55;1.80;;;0.50;;
14923;SDS011;7554;43.600;1.480;2023-03-15T13:59:30;3.57;;;0.50;;
14923;SDS011;7554;43.600;1.480;2023-03-15T14:02:01;1.07;;;0.53;;
14923;SDS011;7554;43.600;1.480;2023-03-15T14:04:31;3.00;;;0.77;;
14923;SDS011;7554;43.600;1.480;2023-03-15T14:10:05;1.47;;;0.50;;
14923;SDS011;7554;43.600;1.480;2023-03-15T14:12:47;1.13;;;0.43;;
14923;SDS011;7554;43.600;1.480;2023-03-15T14:15:17;2.40;;;0.60;;
14923;SDS011;7554;43.600;1.480;2023-03-15T14:17:53;2.87;;;0.43;;
14923;SDS011;7554;43.600;1.480;2023-03-15T14:20:27;2.43;;;0.50;;
14923;SDS011;7554;43.600;1.480;2023-03-15T14:22:58;1.53;;;0.40;;
14923;SDS011;7554;43.600;1.480;2023-03-15T14:25:26;1.27;;;0.40;;
14923;SDS011;7554;43.600;1.480;2023-03-15T14:27:58;1.90;;;0.50;;
14923;SDS011;7554;43.600;1.480;2023-03-15T14:30:28;2.00;;;0.53;;
14923;SDS011;7554;43.600;1.480;2023-03-15T14:33:00;2.83;;;0.60;;
14923;SDS011;7554;43.600;1.480;2023-03-15T14:35:29;1.93;;;0.57;;
14923;SDS011;7554;43.600;1.480;2023-03-15T14:38:02;2.33;;;0.30;;
14923;SDS011;7554;43.600;1.480;2023-03-15T14:40:32;2.63;;;0.70;;
14923;SDS011;7554;43.600;1.480;2023-03-15T14:43:02;1.03;;;0.50;;
14923;SDS011;7554;43.600;1.480;2023-03-15T14:45:32;0.90;;;0.40;;
14923;SDS011;7554;43.600;1.480;2023-03-15T14:48:03;3.07;;;0.77;;
14923;SDS011;7554;43.600;1.480;2023-03-15T14:50:34;1.43;;;0.53;;
14923;SDS011;7554;43.600;1.480;2023-03-15T14:53:02;2.27;;;0.60;;
14923;SDS011;7554;43.600;1.480;2023-03-15T14:55:33;2.53;;;0.60;;
14923;SDS011;7554;43.600;1.480;2023-03-15T14:58:02;1.93;;;0.50;;
14923;SDS011;7554;43.600;1.480;2023-03-15T15:00:32;0.63;;;0.30;;
14923;SDS011;7554;43.600;1.480;2023-03-15T15:02:59;1.30;;;0.60;;
14923;SDS011;7554;43.600;1.480;2023-03-15T15:05:28;1.23;;;0.60;;
14923;SDS011;7554;43.600;1.480;2023-03-15T15:07:58;1.60;;;0.40;;
14923;SDS011;7554;43.600;1.480;2023-03-15T15:10:29;1.10;;;0.30;;
14923;SDS011;7554;43.600;1.480;2023-03-15T15:12:59;2.23;;;0.40;;
14923;SDS011;7554;43.600;1.480;2023-03-15T15:15:26;1.83;;;0.40;;
14923;SDS011;7554;43.600;1.480;2023-03-15T15:17:55;3.87;;;0.57;;
14923;SDS011;7554;43.600;1.480;2023-03-15T15:20:23;4.10;;;0.60;;
14923;SDS011;7554;43.600;1.480;2023-03-15T15:22:51;2.07;;;0.50;;
14923;SDS011;7554;43.600;1.480;2023-03-15T15:25:19;1.97;;;0.50;;